createdAt,value
2022-08-05T00:01:28.427Z,23.56
2022-08-05T00:03:56.984Z,23.27
2022-08-05T00:06:32.205Z,22.84
2022-08-05T00:09:00.730Z,23.01
2022-08-05T00:11:34.798Z,23.78
2022-08-05T00:14:13.085Z,24.88
2022-08-05T00:16:52.077Z,24.61
2022-08-05T00:19:22.592Z,25.16
2022-08-05T00:21:49.979Z,25.30
2022-08-05T00:24:24.133Z,25.50
2022-08-05T00:26:52.940Z,24.35
2022-08-05T00:29:22.425Z,24.91
2022-08-05T00:31:53.300Z,25.13
2022-08-05T00:34:55.794Z,24.44
2022-08-05T00:37:22.529Z,24.64
2022-08-05T00:39:57.939Z,24.96
2022-08-05T00:42:37.032Z,24.81
2022-08-05T00:45:08.658Z,23.77
2022-08-05T00:47:57.104Z,24.89
2022-08-05T00:50:25.264Z,25.05
2022-08-05T00:52:55.082Z,24.73
2022-08-05T00:55:22.276Z,24.87
2022-08-05T00:57:57.992Z,23.85
2022-08-05T01:00:26.285Z,23.80
2022-08-05T01:02:53.060Z,24.57
2022-08-05T01:05:19.829Z,23.44
2022-08-05T01:08:40.187Z,23.49
2022-08-05T01:10:53.996Z,24.41
2022-08-05T01:13:58.356Z,24.70
2022-08-05T01:16:40.185Z,24.50
2022-08-05T01:19:46.331Z,24.42
2022-08-05T01:22:24.267Z,24.31
2022-08-05T01:25:39.945Z,24.23
2022-08-05T01:28:13.835Z,23.79
2022-08-05T01:30:59.182Z,24.20
2022-08-05T01:33:35.538Z,24.46
2022-08-05T01:36:13.068Z,24.36
2022-08-05T01:38:48.575Z,24.38
2022-08-05T01:41:21.009Z,24.29
2022-08-05T01:43:49.970Z,23.94
2022-08-05T01:46:42.867Z,24.47
2022-08-05T01:49:23.000Z,24.31
2022-08-05T01:51:55.103Z,23.79
2022-08-05T01:54:25.702Z,24.28
2022-08-05T01:58:12.658Z,23.44
2022-08-05T01:59:47.288Z,24.09
2022-08-05T02:02:15.822Z,24.22
2022-08-05T02:04:46.129Z,24.32
2022-08-05T02:07:22.035Z,24.42
2022-08-05T02:09:50.362Z,24.44
2022-08-05T02:12:32.977Z,24.41
2022-08-05T02:15:00.343Z,24.40
2022-08-05T02:18:27.510Z,24.51
2022-08-05T02:20:27.869Z,24.23
2022-08-05T02:22:59.701Z,24.12
2022-08-05T02:25:33.372Z,23.91
2022-08-05T02:28:08.720Z,24.27
2022-08-05T02:30:51.764Z,24.29
2022-08-05T02:33:24.543Z,23.94
2022-08-05T02:36:09.443Z,23.96
2022-08-05T02:38:37.737Z,23.52
2022-08-05T02:41:14.495Z,23.30
2022-08-05T02:44:02.327Z,23.67
2022-08-05T02:46:33.977Z,23.75
2022-08-05T02:49:01.781Z,23.95
2022-08-05T02:52:04.474Z,23.66
2022-08-05T02:54:35.082Z,23.72
2022-08-05T02:57:10.281Z,23.87
2022-08-05T02:59:55.016Z,23.96
2022-08-05T03:02:27.442Z,23.94
2022-08-05T03:04:55.344Z,23.87
2022-08-05T03:07:27.033Z,23.33
2022-08-05T03:10:10.443Z,23.15
2022-08-05T03:12:51.704Z,23.47
2022-08-05T03:15:19.994Z,23.62
2022-08-05T03:17:46.610Z,23.24
2022-08-05T03:20:13.392Z,23.18
2022-08-05T03:22:44.353Z,23.62
2022-08-05T03:25:32.859Z,23.56
2022-08-05T03:28:02.259Z,23.69
2022-08-05T03:30:33.999Z,23.76
2022-08-05T03:33:02.854Z,23.56
2022-08-05T03:35:30.995Z,23.19
2022-08-05T03:38:01.321Z,23.69
2022-08-05T03:40:32.263Z,23.76
2022-08-05T03:43:16.033Z,23.56
2022-08-05T03:45:57.129Z,23.37
2022-08-05T03:48:27.482Z,23.76
2022-08-05T03:52:37.258Z,23.74
2022-08-05T03:55:34.306Z,23.26
2022-08-05T03:56:46.511Z,23.17
2022-08-05T03:59:47.273Z,23.14
2022-08-05T04:02:38.218Z,22.64
2022-08-05T04:05:09.919Z,22.89
2022-08-05T04:07:53.040Z,23.19
2022-08-05T04:10:27.794Z,23.64
2022-08-05T04:12:56.059Z,23.44
2022-08-05T04:15:26.508Z,22.85
2022-08-05T04:17:57.223Z,22.91
2022-08-05T04:20:24.244Z,23.36
2022-08-05T04:22:50.737Z,22.83
2022-08-05T04:25:17.434Z,22.91
2022-08-05T04:27:57.368Z,23.30
2022-08-05T04:30:26.588Z,23.43
2022-08-05T04:32:53.316Z,23.16
2022-08-05T04:35:20.176Z,22.90
2022-08-05T04:38:01.349Z,23.08
2022-08-05T04:40:36.275Z,22.64
2022-08-05T04:43:03.593Z,22.81
2022-08-05T04:45:48.322Z,22.90
2022-08-05T04:48:18.556Z,21.57
2022-08-05T04:51:01.844Z,22.21
2022-08-05T04:53:33.957Z,22.33
2022-08-05T04:56:33.099Z,22.29
2022-08-05T04:58:49.395Z,23.10
2022-08-05T05:01:15.941Z,22.94
2022-08-05T05:04:02.316Z,23.15
2022-08-05T05:06:40.409Z,23.19
2022-08-05T05:09:14.032Z,22.37
2022-08-05T05:11:54.065Z,22.69
2022-08-05T05:14:27.855Z,22.82
2022-08-05T05:16:59.950Z,23.45
2022-08-05T05:19:36.329Z,23.64
2022-08-05T05:22:24.472Z,23.80
2022-08-05T05:24:57.593Z,23.80
2022-08-05T05:27:41.720Z,23.88
2022-08-05T05:30:31.482Z,23.52
2022-08-05T05:33:09.197Z,23.73
2022-08-05T05:35:47.445Z,23.81
2022-08-05T05:38:14.598Z,23.97
2022-08-05T05:40:49.670Z,23.73
2022-08-05T05:43:54.442Z,22.71
2022-08-05T05:46:15.972Z,22.53
2022-08-05T05:48:45.877Z,23.16
2022-08-05T05:51:20.255Z,22.78
2022-08-05T05:53:57.226Z,22.74
2022-08-05T05:56:26.212Z,22.99
2022-08-05T05:58:58.478Z,23.78
2022-08-05T06:01:37.995Z,23.53
2022-08-05T06:04:11.655Z,23.90
2022-08-05T06:06:41.744Z,22.77
2022-08-05T06:09:09.272Z,23.91
2022-08-05T06:11:59.608Z,23.75
2022-08-05T06:14:29.200Z,23.67
2022-08-05T06:16:56.849Z,24.23
2022-08-05T06:19:35.088Z,24.25
2022-08-05T06:22:06.644Z,23.97
2022-08-05T06:24:34.926Z,24.16
2022-08-05T06:27:01.847Z,23.94
2022-08-05T06:29:46.609Z,24.01
2022-08-05T06:32:20.876Z,23.45
2022-08-05T06:34:53.449Z,23.60
2022-08-05T06:37:55.818Z,23.07
2022-08-05T06:40:07.606Z,23.43
2022-08-05T06:42:34.097Z,22.12
2022-08-05T06:45:00.555Z,23.38
2022-08-05T06:48:36.566Z,23.05
2022-08-05T06:50:19.024Z,23.50
2022-08-05T06:52:58.770Z,23.86
2022-08-05T06:55:36.514Z,23.61
2022-08-05T06:58:19.817Z,23.90
2022-08-05T07:00:50.399Z,23.36
2022-08-05T07:03:17.108Z,23.28
2022-08-05T07:05:44.285Z,23.23
2022-08-05T07:08:13.207Z,23.44
2022-08-05T07:10:52.909Z,23.18
2022-08-05T07:13:59.171Z,23.41
2022-08-05T07:18:00.013Z,23.25
2022-08-05T07:22:28.559Z,23.42
2022-08-05T07:25:22.717Z,23.77
2022-08-05T07:27:57.305Z,23.80
2022-08-05T07:30:33.430Z,23.78
2022-08-05T07:33:09.762Z,24.06
2022-08-05T07:36:02.607Z,23.36
2022-08-05T07:38:33.532Z,23.52
2022-08-05T07:42:09.176Z,23.58
2022-08-05T07:43:56.438Z,24.02
2022-08-05T07:46:27.449Z,23.68
2022-08-05T07:49:04.077Z,23.70
2022-08-05T07:51:37.252Z,23.09
2022-08-05T07:54:09.781Z,22.44
2022-08-05T07:57:02.739Z,22.06
2022-08-05T07:59:38.840Z,22.43
2022-08-05T08:02:15.809Z,21.75
2022-08-05T08:04:45.107Z,22.81
2022-08-05T08:07:12.570Z,21.64
2022-08-05T08:09:39.103Z,21.95
2022-08-05T08:12:19.943Z,22.16
2022-08-05T08:14:52.379Z,23.62
2022-08-05T08:17:18.867Z,23.15
2022-08-05T08:20:21.108Z,22.66
2022-08-05T08:22:37.786Z,23.70
2022-08-05T08:25:15.743Z,22.74
2022-08-05T08:27:47.673Z,23.45
2022-08-05T08:30:28.465Z,23.80
2022-08-05T08:33:02.614Z,23.40
2022-08-05T08:35:34.732Z,23.66
2022-08-05T08:38:07.348Z,23.42
2022-08-05T08:40:35.259Z,22.99
2022-08-05T08:45:16.248Z,24.32
2022-08-05T08:45:54.325Z,24.69
2022-08-05T08:48:36.116Z,24.65
2022-08-05T08:52:01.730Z,24.18
2022-08-05T08:53:55.420Z,24.94
2022-08-05T08:56:23.553Z,24.80
2022-08-05T08:58:53.953Z,25.12
2022-08-05T09:01:20.476Z,25.10
2022-08-05T09:03:55.803Z,24.97
2022-08-05T09:06:30.287Z,24.81
2022-08-05T09:09:02.067Z,25.33
2022-08-05T09:11:51.111Z,24.35
2022-08-05T09:14:58.822Z,25.33
2022-08-05T09:17:08.140Z,25.35
2022-08-05T09:20:01.897Z,24.66
2022-08-05T09:22:31.381Z,25.51
2022-08-05T09:25:13.734Z,24.53
2022-08-05T09:28:03.900Z,24.43
2022-08-05T09:30:34.431Z,25.05
2022-08-05T09:33:05.013Z,24.92
2022-08-05T09:35:31.860Z,24.58
2022-08-05T09:38:13.053Z,25.04
2022-08-05T09:40:51.748Z,24.87
2022-08-05T09:43:27.528Z,25.23
2022-08-05T09:46:27.637Z,25.17
2022-08-05T09:49:07.773Z,24.97
2022-08-05T09:51:42.290Z,25.45
2022-08-05T09:54:09.485Z,24.29
2022-08-05T09:56:38.237Z,24.56
2022-08-05T09:59:07.698Z,25.28
2022-08-05T10:01:41.843Z,25.41
2022-08-05T10:04:16.091Z,25.17
2022-08-05T10:07:19.925Z,24.44
2022-08-05T10:10:04.161Z,25.29
2022-08-05T10:12:50.463Z,24.68
2022-08-05T10:15:27.846Z,24.13
2022-08-05T10:18:12.393Z,24.50
2022-08-05T10:20:40.670Z,24.08
2022-08-05T10:23:21.748Z,23.83
2022-08-05T10:25:56.488Z,23.57
2022-08-05T10:28:29.595Z,24.51
2022-08-05T10:32:51.033Z,24.33
2022-08-05T10:33:45.024Z,24.64
2022-08-05T10:36:19.080Z,24.39
2022-08-05T10:39:24.036Z,24.85
2022-08-05T10:42:11.730Z,24.25
2022-08-05T10:44:39.308Z,24.49
2022-08-05T10:47:25.968Z,24.37
2022-08-05T10:50:32.087Z,24.78
2022-08-05T10:53:00.153Z,24.30
2022-08-05T10:55:27.254Z,22.41
2022-08-05T10:58:11.471Z,22.65
2022-08-05T11:00:42.263Z,23.98
2022-08-05T11:03:25.532Z,24.22
2022-08-05T11:06:04.298Z,24.73
2022-08-05T11:08:37.220Z,24.24
2022-08-05T11:11:44.267Z,23.83
2022-08-05T11:14:49.507Z,24.58
2022-08-05T11:18:00.386Z,23.39
2022-08-05T11:20:39.097Z,24.52
2022-08-05T11:24:04.719Z,24.72
2022-08-05T11:26:35.957Z,24.45
2022-08-05T11:29:12.924Z,24.66
2022-08-05T11:31:56.338Z,24.70
2022-08-05T11:34:37.819Z,24.58
2022-08-05T11:37:06.304Z,24.61
2022-08-05T11:40:00.203Z,24.77
2022-08-05T11:42:37.875Z,24.04
2022-08-05T11:45:14.189Z,24.88
2022-08-05T11:47:50.578Z,23.57
2022-08-05T11:50:21.586Z,24.47
2022-08-05T11:52:48.996Z,23.94
2022-08-05T11:55:17.636Z,24.30
2022-08-05T11:58:10.649Z,24.24
2022-08-05T12:00:38.115Z,24.21
2022-08-05T12:03:43.639Z,24.20
2022-08-05T12:06:25.862Z,24.51
2022-08-05T12:08:54.413Z,24.36
2022-08-05T12:11:40.374Z,23.95
2022-08-05T12:14:10.248Z,23.71
2022-08-05T12:16:45.148Z,23.37
2022-08-05T12:20:26.325Z,23.81
2022-08-05T12:22:01.463Z,22.49
2022-08-05T12:24:27.956Z,23.05
2022-08-05T12:26:54.861Z,23.41
2022-08-05T12:29:23.475Z,23.30
2022-08-05T12:31:55.500Z,22.02
2022-08-05T12:34:28.545Z,22.88
2022-08-05T12:36:59.034Z,22.79
2022-08-05T12:39:34.300Z,22.36
2022-08-05T12:42:09.494Z,22.90
2022-08-05T12:44:41.661Z,23.16
2022-08-05T12:47:12.423Z,22.59
2022-08-05T12:50:03.228Z,23.32
2022-08-05T12:52:41.699Z,23.17
2022-08-05T12:55:32.508Z,22.79
2022-08-05T12:58:51.272Z,23.05
2022-08-05T13:02:00.555Z,23.06
2022-08-05T13:03:41.447Z,22.92
2022-08-05T13:06:19.770Z,23.01
2022-08-05T13:08:51.703Z,23.35
2022-08-05T13:11:57.945Z,23.14
2022-08-05T13:14:36.115Z,22.62
2022-08-05T13:17:16.191Z,22.46
2022-08-05T13:20:06.885Z,23.01
2022-08-05T13:22:43.479Z,22.86
2022-08-05T13:25:19.171Z,22.64
2022-08-05T13:27:51.653Z,22.66
2022-08-05T13:30:35.185Z,22.39
2022-08-05T13:33:05.486Z,22.35
2022-08-05T13:35:42.594Z,22.64
2022-08-05T13:38:28.436Z,22.52
2022-08-05T13:40:58.492Z,22.44
2022-08-05T13:43:44.094Z,22.82
2022-08-05T13:46:12.200Z,22.09
2022-08-05T13:48:57.874Z,22.70
2022-08-05T13:51:40.352Z,22.63
2022-08-05T13:54:11.805Z,22.51
2022-08-05T13:56:39.930Z,23.18
2022-08-05T13:59:20.326Z,23.15
2022-08-05T14:01:56.428Z,22.99
2022-08-05T14:04:41.983Z,23.36
2022-08-05T14:07:26.439Z,23.31
2022-08-05T14:09:56.076Z,21.97
2022-08-05T14:12:32.793Z,22.20
2022-08-05T14:14:59.671Z,22.93
2022-08-05T14:17:26.717Z,23.25
2022-08-05T14:19:59.646Z,23.62
2022-08-05T14:22:30.460Z,23.11
2022-08-05T14:25:01.508Z,23.40
2022-08-05T14:27:28.382Z,22.81
2022-08-05T14:29:56.415Z,23.10
2022-08-05T14:32:26.787Z,23.24
2022-08-05T14:34:54.726Z,23.37
2022-08-05T14:37:45.444Z,23.58
2022-08-05T14:40:13.980Z,23.78
2022-08-05T14:42:43.091Z,23.85
2022-08-05T14:45:10.190Z,23.72
2022-08-05T14:48:03.416Z,22.59
2022-08-05T14:50:23.355Z,23.37
2022-08-05T14:52:58.313Z,23.38
2022-08-05T14:55:39.568Z,23.30
2022-08-05T14:58:11.959Z,23.50
2022-08-05T15:00:58.430Z,23.79
2022-08-05T15:03:33.223Z,23.47
2022-08-05T15:06:07.877Z,23.08
2022-08-05T15:09:01.123Z,23.02
2022-08-05T15:11:51.628Z,22.27
2022-08-05T15:14:33.243Z,22.82
2022-08-05T15:17:01.531Z,23.28
2022-08-05T15:19:30.430Z,23.91
2022-08-05T15:22:00.101Z,22.66
2022-08-05T15:24:27.933Z,23.84
2022-08-05T15:26:55.889Z,23.71
2022-08-05T15:29:23.543Z,23.91
2022-08-05T15:31:56.373Z,23.69
2022-08-05T15:34:32.942Z,24.01
2022-08-05T15:37:06.311Z,23.74
2022-08-05T15:41:00.102Z,23.83
2022-08-05T15:42:28.798Z,23.16
2022-08-05T15:45:14.767Z,23.21
2022-08-05T15:47:42.852Z,23.09
2022-08-05T15:50:15.091Z,23.37
2022-08-05T15:52:53.264Z,23.71
2022-08-05T15:55:24.574Z,23.18
2022-08-05T15:57:51.377Z,23.28
2022-08-05T16:00:26.269Z,23.31
2022-08-05T16:03:05.023Z,23.66
2022-08-05T16:05:31.979Z,23.30
2022-08-05T16:07:58.518Z,23.22
2022-08-05T16:10:26.975Z,22.63
2022-08-05T16:12:56.024Z,23.61
2022-08-05T16:15:23.026Z,23.81
2022-08-05T16:17:57.844Z,22.40
2022-08-05T16:20:24.855Z,23.23
2022-08-05T16:22:51.308Z,23.55
2022-08-05T16:25:17.874Z,23.51
2022-08-05T16:28:01.085Z,23.52
2022-08-05T16:30:31.867Z,23.78
2022-08-05T16:32:59.408Z,23.98
2022-08-05T16:35:28.691Z,24.04
2022-08-05T16:38:16.316Z,24.05
2022-08-05T16:40:51.692Z,24.40
2022-08-05T16:43:23.746Z,24.24
2022-08-05T16:46:03.703Z,23.54
2022-08-05T16:48:39.042Z,24.15
2022-08-05T16:51:09.362Z,24.39
2022-08-05T16:54:05.771Z,24.35
2022-08-05T16:56:26.171Z,23.73
2022-08-05T16:59:07.894Z,24.17
2022-08-05T17:01:54.391Z,23.91
2022-08-05T17:04:23.915Z,23.39
2022-08-05T17:06:55.218Z,24.20
2022-08-05T17:09:23.060Z,24.35
2022-08-05T17:11:52.360Z,24.38
2022-08-05T17:14:34.036Z,23.01
2022-08-05T17:17:04.197Z,22.10
2022-08-05T17:19:31.208Z,23.31
2022-08-05T17:21:58.368Z,23.51
2022-08-05T17:24:33.928Z,23.10
2022-08-05T17:27:05.592Z,23.76
2022-08-05T17:29:39.766Z,23.98
2022-08-05T17:32:17.219Z,23.97
2022-08-05T17:34:53.137Z,24.02
2022-08-05T17:37:39.698Z,23.99
2022-08-05T17:40:10.867Z,23.49
2022-08-05T17:42:46.389Z,22.95
2022-08-05T17:45:20.298Z,23.64
2022-08-05T17:47:51.543Z,23.88
2022-08-05T17:50:27.668Z,23.53
2022-08-05T17:52:58.723Z,23.88
2022-08-05T17:55:27.223Z,24.02
2022-08-05T17:58:01.947Z,24.02
2022-08-05T18:00:29.444Z,23.97
2022-08-05T18:02:56.319Z,23.22
2022-08-05T18:05:23.666Z,23.56
2022-08-05T18:07:54.461Z,23.93
2022-08-05T18:10:23.327Z,23.41
2022-08-05T18:12:49.939Z,23.26
2022-08-05T18:15:16.671Z,23.39
2022-08-05T18:18:00.903Z,23.66
2022-08-05T18:20:31.852Z,23.31
2022-08-05T18:23:09.320Z,23.86
2022-08-05T18:25:39.508Z,22.83
2022-08-05T18:28:11.364Z,23.59
2022-08-05T18:30:39.180Z,23.67
2022-08-05T18:33:07.360Z,23.28
2022-08-05T18:36:00.527Z,23.74
2022-08-05T18:38:25.998Z,23.74
2022-08-05T18:41:57.092Z,23.66
2022-08-05T18:43:42.768Z,22.99
2022-08-05T18:46:14.837Z,23.62
2022-08-05T18:48:41.610Z,23.72
2022-08-05T18:52:03.887Z,23.75
2022-08-05T18:54:14.744Z,23.11
2022-08-05T18:56:41.869Z,23.56
2022-08-05T18:59:43.308Z,22.67
2022-08-05T19:02:04.613Z,23.50
2022-08-05T19:04:38.107Z,23.62
2022-08-05T19:07:24.645Z,23.40
2022-08-05T19:09:56.599Z,23.01
2022-08-05T19:12:23.389Z,22.32
2022-08-05T19:15:00.312Z,22.39
2022-08-05T19:17:59.371Z,22.48
2022-08-05T19:20:15.610Z,22.96
2022-08-05T19:22:44.222Z,22.67
2022-08-05T19:25:10.817Z,22.72
2022-08-05T19:27:48.761Z,22.60
2022-08-05T19:30:20.489Z,22.51
2022-08-05T19:32:47.260Z,22.49
2022-08-05T19:35:14.373Z,22.40
2022-08-05T19:38:04.660Z,22.40
2022-08-05T19:40:28.591Z,22.56
2022-08-05T19:43:04.658Z,22.68
2022-08-05T19:45:36.367Z,22.06
2022-08-05T19:48:03.444Z,22.42
2022-08-05T19:50:31.850Z,22.44
2022-08-05T19:52:58.534Z,22.27
2022-08-05T19:56:15.228Z,22.06
2022-08-05T19:58:29.164Z,22.06
2022-08-05T20:00:56.384Z,21.99
2022-08-05T20:03:26.140Z,21.79
2022-08-05T20:05:56.448Z,21.87
2022-08-05T20:08:24.609Z,21.79
2022-08-05T20:10:52.264Z,21.77
2022-08-05T20:13:30.042Z,21.75
2022-08-05T20:16:05.669Z,21.81
2022-08-05T20:18:33.253Z,21.82
2022-08-05T20:21:04.592Z,21.91
2022-08-05T20:23:40.450Z,21.71
2022-08-05T20:26:20.398Z,21.72
2022-08-05T20:28:50.369Z,21.67
2022-08-05T20:31:21.676Z,21.74
2022-08-05T20:33:50.038Z,20.91
2022-08-05T20:36:18.094Z,21.47
2022-08-05T20:38:54.242Z,21.42
2022-08-05T20:41:27.524Z,21.06
2022-08-05T20:44:17.804Z,21.49
2022-08-05T20:46:57.978Z,21.36
2022-08-05T20:49:25.980Z,21.30
2022-08-05T20:51:54.017Z,21.38
2022-08-05T20:54:20.990Z,21.36
2022-08-05T20:56:47.467Z,21.12
2022-08-05T20:59:26.665Z,21.20
2022-08-05T21:01:57.247Z,20.88
2022-08-05T21:04:26.906Z,20.41
2022-08-05T21:06:54.153Z,20.85
2022-08-05T21:09:21.758Z,20.95
2022-08-05T21:12:09.147Z,21.05
2022-08-05T21:14:35.521Z,21.07
2022-08-05T21:17:05.963Z,20.36
2022-08-05T21:19:47.422Z,20.75
2022-08-05T21:22:18.333Z,20.88
2022-08-05T21:24:45.754Z,20.49
2022-08-05T21:27:16.008Z,20.62
2022-08-05T21:29:43.252Z,20.61
2022-08-05T21:32:19.880Z,20.63
2022-08-05T21:35:08.496Z,20.72
2022-08-05T21:37:33.405Z,20.66
2022-08-05T21:40:05.810Z,20.62
2022-08-05T21:42:43.700Z,20.56
2022-08-05T21:45:11.654Z,20.13
2022-08-05T21:47:55.717Z,20.23
2022-08-05T21:50:24.080Z,20.32
2022-08-05T21:52:50.564Z,20.20
2022-08-05T21:55:42.683Z,20.05
2022-08-05T21:58:05.439Z,20.18
2022-08-05T22:00:32.185Z,20.18
2022-08-05T22:02:59.708Z,20.02
2022-08-05T22:05:27.419Z,19.64
2022-08-05T22:07:58.667Z,19.87
2022-08-05T22:10:26.888Z,19.69
2022-08-05T22:12:57.515Z,19.91
2022-08-05T22:16:02.492Z,19.89
2022-08-05T22:18:12.667Z,19.90
2022-08-05T22:20:41.182Z,19.82
2022-08-05T22:24:02.299Z,19.79
2022-08-05T22:26:31.483Z,19.74
2022-08-05T22:29:00.285Z,19.70
2022-08-05T22:31:30.254Z,19.66
2022-08-05T22:34:01.517Z,19.55
2022-08-05T22:36:29.161Z,19.63
2022-08-05T22:38:56.313Z,19.50
2022-08-05T22:42:04.932Z,19.50
2022-08-05T22:44:12.071Z,19.62
2022-08-05T22:46:40.695Z,19.43
2022-08-05T22:49:23.058Z,19.33
2022-08-05T22:52:05.805Z,19.46
2022-08-05T22:54:35.264Z,19.46
2022-08-05T22:57:02.850Z,19.37
2022-08-05T22:59:48.559Z,19.24
2022-08-05T23:02:29.476Z,19.33
2022-08-05T23:04:56.951Z,19.33
2022-08-05T23:07:23.423Z,19.23
2022-08-05T23:09:57.166Z,18.93
2022-08-05T23:12:32.431Z,19.03
2022-08-05T23:15:03.948Z,19.20
2022-08-05T23:17:37.433Z,19.11
2022-08-05T23:20:24.402Z,18.96
2022-08-05T23:22:54.166Z,18.82
2022-08-05T23:25:52.911Z,18.99
2022-08-05T23:28:10.795Z,18.84
2022-08-05T23:30:40.153Z,18.84
2022-08-05T23:33:16.477Z,18.80
2022-08-05T23:35:50.045Z,18.72
2022-08-05T23:38:16.974Z,18.66
2022-08-05T23:40:50.058Z,18.45
2022-08-05T23:43:25.536Z,18.63
2022-08-05T23:46:21.149Z,18.70
2022-08-05T23:49:00.412Z,18.48
2022-08-05T23:51:53.697Z,18.56
2022-08-05T23:54:31.728Z,18.50
2022-08-05T23:57:04.634Z,18.53
